Terminal Aerodrome Forecast
Issued by NWS

Home | Current Version | Previous Version | Graphics & Text | Print | Product List | Glossary On
Versions: 1 2 3 4 5 6 7 8 9 10 11 12 13 14 15 16 17 18
005
FTUS43 KOAX 210538
TAFCDR
TAF
KCDR 210538Z 2106/2206 28007KT P6SM BKN035 BKN100
     FM211000 25005KT P6SM SCT100 SCT250
     FM211700 34005KT P6SM BKN200=

USA.gov is the U.S. government's official web portal to all federal, state and local government web resources and services.